createdAt,value
2023-01-06T00:02:12.073Z,98157.31
2023-01-06T00:04:38.816Z,98166.17
2023-01-06T00:07:05.593Z,98168.73
2023-01-06T00:09:34.246Z,98169.25
2023-01-06T00:12:01.376Z,98173.54
2023-01-06T00:14:28.076Z,98180.41
2023-01-06T00:16:54.758Z,98178.77
2023-01-06T00:19:21.506Z,98179.45
2023-01-06T00:21:48.168Z,98181.45
2023-01-06T00:24:14.834Z,98184.98
2023-01-06T00:26:41.522Z,98184.05
2023-01-06T00:29:10.031Z,98187.92
2023-01-06T00:31:39.780Z,98192.63
2023-01-06T00:34:09.368Z,98192.45
2023-01-06T00:36:36.095Z,98198.33
2023-01-06T00:39:05.679Z,98203.13
2023-01-06T00:41:51.120Z,98209.51
2023-01-06T00:44:17.852Z,98207.88
2023-01-06T00:46:44.616Z,98212.09
2023-01-06T00:49:11.236Z,98213.17
2023-01-06T00:51:39.429Z,98211.08
2023-01-06T00:54:07.566Z,98217.42
2023-01-06T00:56:42.225Z,98219.46
2023-01-06T00:59:09.591Z,98220.42
2023-01-06T01:01:36.367Z,98222.05
2023-01-06T01:04:03.205Z,98227.72
2023-01-06T01:06:29.967Z,98232.53
2023-01-06T01:08:58.735Z,98230.27
2023-01-06T01:11:44.164Z,98236.96
2023-01-06T01:14:11.500Z,98239.25
2023-01-06T01:16:38.464Z,98240.92
2023-01-06T01:19:05.445Z,98251.02
2023-01-06T01:21:32.219Z,98249.44
2023-01-06T01:23:58.938Z,98253.41
2023-01-06T01:26:25.625Z,98252.91
2023-01-06T01:28:52.301Z,98261.98
2023-01-06T01:31:20.501Z,98273.74
2023-01-06T01:33:47.335Z,98273.38
2023-01-06T01:36:14.761Z,98280.41
2023-01-06T01:38:41.526Z,98288.19
2023-01-06T01:41:09.097Z,98294.54
2023-01-06T01:43:46.760Z,98302.84
2023-01-06T01:46:14.979Z,98313.70
2023-01-06T01:48:41.744Z,98316.23
2023-01-06T01:51:16.437Z,98324.91
2023-01-06T01:53:46.936Z,98336.89
2023-01-06T01:56:17.809Z,98342.13
2023-01-06T01:59:09.221Z,98343.17
2023-01-06T02:01:36.062Z,98345.85
2023-01-06T02:04:03.209Z,98352.30
2023-01-06T02:06:29.930Z,98362.48
2023-01-06T02:09:00.298Z,98366.39
2023-01-06T02:11:27.491Z,98376.80
2023-01-06T02:13:57.806Z,98383.77
2023-01-06T02:16:39.808Z,98385.78
2023-01-06T02:19:20.272Z,98392.64
2023-01-06T02:22:08.277Z,98395.71
2023-01-06T02:24:44.121Z,98410.85
2023-01-06T02:27:21.379Z,98415.52
2023-01-06T02:30:23.640Z,98420.17
2023-01-06T02:35:39.420Z,98436.79
2023-01-06T02:38:55.211Z,98448.33
2023-01-06T02:41:29.705Z,98450.48
2023-01-06T02:44:32.120Z,98452.58
2023-01-06T02:47:21.119Z,98461.39
2023-01-06T02:49:52.310Z,98465.27
2023-01-06T02:52:33.455Z,98470.26
2023-01-06T02:55:22.783Z,98473.27
2023-01-06T02:57:57.363Z,98485.48
2023-01-06T03:00:39.096Z,98493.95
2023-01-06T03:03:09.252Z,98509.39
2023-01-06T03:05:36.571Z,98517.02
2023-01-06T03:08:07.039Z,98526.09
2023-01-06T03:10:33.766Z,98532.14
2023-01-06T03:13:07.319Z,98536.90
2023-01-06T03:15:34.452Z,98539.39
2023-01-06T03:18:01.709Z,98543.36
2023-01-06T03:20:28.522Z,98547.55
2023-01-06T03:22:55.189Z,98555.29
2023-01-06T03:25:22.232Z,98560.51
2023-01-06T03:27:49.328Z,98566.39
2023-01-06T03:30:16.128Z,98573.35
2023-01-06T03:32:56.389Z,98582.25
2023-01-06T03:35:52.007Z,98588.77
2023-01-06T03:38:34.541Z,98600.52
2023-01-06T03:41:10.756Z,98608.21
2023-01-06T03:43:42.100Z,98603.09
2023-01-06T03:46:30.753Z,98607.33
2023-01-06T03:49:04.704Z,98613.52
2023-01-06T03:51:50.413Z,98619.36
2023-01-06T03:54:30.739Z,98626.08
2023-01-06T03:57:06.125Z,98623.66
2023-01-06T03:59:35.144Z,98630.48
2023-01-06T04:02:02.951Z,98640.02
2023-01-06T04:04:30.327Z,98646.92
2023-01-06T04:06:57.917Z,98659.58
2023-01-06T04:09:25.213Z,98663.68
2023-01-06T04:12:10.747Z,98671.21
2023-01-06T04:14:38.462Z,98679.13
2023-01-06T04:17:05.730Z,98685.38
2023-01-06T04:19:32.828Z,98695.83
2023-01-06T04:21:59.883Z,98703.38
2023-01-06T04:24:28.529Z,98694.99
2023-01-06T04:26:56.013Z,98717.16
2023-01-06T04:29:22.802Z,98720.34
2023-01-06T04:31:50.127Z,98725.88
2023-01-06T04:34:16.856Z,98728.89
2023-01-06T04:36:44.856Z,98732.73
2023-01-06T04:39:11.576Z,98738.52
2023-01-06T04:41:38.294Z,98749.33
2023-01-06T04:44:05.177Z,98755.96
2023-01-06T04:46:31.785Z,98763.90
2023-01-06T04:48:58.523Z,98770.31
2023-01-06T04:51:25.267Z,98773.34
2023-01-06T04:53:51.989Z,98782.50
2023-01-06T04:56:20.707Z,98795.27
2023-01-06T04:58:47.499Z,98806.09
2023-01-06T05:01:14.312Z,98812.94
2023-01-06T05:03:41.193Z,98811.04
2023-01-06T05:06:11.632Z,98814.21
2023-01-06T05:08:39.106Z,98825.23
2023-01-06T05:11:11.499Z,98837.43
2023-01-06T05:13:38.410Z,98841.77
2023-01-06T05:16:08.785Z,98859.45
2023-01-06T05:18:35.607Z,98866.09
2023-01-06T05:21:02.219Z,98875.95
2023-01-06T05:23:28.916Z,98883.50
2023-01-06T05:25:55.716Z,98884.50
2023-01-06T05:28:22.540Z,98889.14
2023-01-06T05:30:49.130Z,98892.39
2023-01-06T05:33:15.834Z,98902.83
2023-01-06T05:35:42.542Z,98901.50
2023-01-06T05:38:09.224Z,98901.38
2023-01-06T05:40:36.004Z,98905.66
2023-01-06T05:43:02.725Z,98907.11
2023-01-06T05:45:29.428Z,98921.41
2023-01-06T05:47:57.867Z,98926.86
2023-01-06T05:50:24.638Z,98930.81
2023-01-06T05:52:51.289Z,98936.30
2023-01-06T05:55:18.013Z,98937.17
2023-01-06T05:57:44.705Z,98944.30
2023-01-06T06:00:12.075Z,98943.84
2023-01-06T06:02:41.557Z,98955.20
2023-01-06T06:05:08.369Z,98963.77
2023-01-06T06:07:34.984Z,98969.63
2023-01-06T06:10:02.071Z,98971.48
2023-01-06T06:12:28.939Z,98978.69
2023-01-06T06:14:55.856Z,98987.09
2023-01-06T06:17:22.661Z,98995.29
2023-01-06T06:19:49.335Z,99001.15
2023-01-06T06:22:16.063Z,99010.80
2023-01-06T06:24:42.721Z,99020.11
2023-01-06T06:27:09.520Z,99030.70
2023-01-06T06:29:36.127Z,99035.35
2023-01-06T06:32:02.800Z,99040.36
2023-01-06T06:34:29.498Z,99048.48
2023-01-06T06:36:56.201Z,99050.58
2023-01-06T06:39:23.196Z,99057.86
2023-01-06T06:41:49.980Z,99063.20
2023-01-06T06:44:16.705Z,99074.14
2023-01-06T06:46:43.429Z,99082.25
2023-01-06T06:49:10.217Z,99089.98
2023-01-06T06:51:37.064Z,99098.01
2023-01-06T06:54:04.517Z,99100.20
2023-01-06T06:56:31.211Z,99103.45
2023-01-06T06:58:57.903Z,99110.40
2023-01-06T07:01:24.742Z,99116.92
2023-01-06T07:03:51.433Z,99125.45
2023-01-06T07:06:20.011Z,99131.29
2023-01-06T07:08:46.998Z,99142.43
2023-01-06T07:11:13.830Z,99144.10
2023-01-06T07:13:40.540Z,99157.26
2023-01-06T07:16:07.493Z,99169.77
2023-01-06T07:18:34.151Z,99182.85
2023-01-06T07:21:00.920Z,99191.10
2023-01-06T07:23:27.628Z,99198.38
2023-01-06T07:25:55.125Z,99207.16
2023-01-06T07:28:22.094Z,99215.88
2023-01-06T07:30:48.847Z,99215.77
2023-01-06T07:33:15.577Z,99220.21
2023-01-06T07:35:42.483Z,99228.94
2023-01-06T07:38:09.128Z,99230.08
2023-01-06T07:40:36.414Z,99236.22
2023-01-06T07:43:06.856Z,99243.91
2023-01-06T07:45:33.693Z,99251.67
2023-01-06T07:48:00.323Z,99262.41
2023-01-06T07:50:27.175Z,99262.59
2023-01-06T07:52:53.833Z,99266.23
2023-01-06T07:55:20.805Z,99279.93
2023-01-06T07:57:47.509Z,99285.94
2023-01-06T08:00:14.920Z,99289.27
2023-01-06T08:02:41.682Z,99288.42
2023-01-06T08:05:08.470Z,99299.20
2023-01-06T08:07:35.500Z,99308.27
2023-01-06T08:10:02.313Z,99316.29
2023-01-06T08:12:28.980Z,99330.77
2023-01-06T08:14:55.694Z,99338.48
2023-01-06T08:17:22.364Z,99349.27
2023-01-06T08:19:49.056Z,99354.55
2023-01-06T08:22:15.711Z,99359.97
2023-01-06T08:24:42.382Z,99372.27
2023-01-06T08:27:09.265Z,99374.67
2023-01-06T08:29:35.885Z,99380.88
2023-01-06T08:32:10.260Z,99395.17
2023-01-06T08:34:38.110Z,99395.79
2023-01-06T08:37:04.852Z,99401.02
2023-01-06T08:39:31.618Z,99410.63
2023-01-06T08:41:58.328Z,99406.97
2023-01-06T08:44:25.039Z,99409.93
2023-01-06T08:46:51.763Z,99411.98
2023-01-06T08:49:18.539Z,99421.35
2023-01-06T08:51:45.259Z,99419.98
2023-01-06T08:54:12.009Z,99423.48
2023-01-06T08:56:39.070Z,99426.48
2023-01-06T08:59:05.820Z,99425.27
2023-01-06T09:01:34.502Z,99425.16
2023-01-06T09:04:02.816Z,99419.63
2023-01-06T09:06:29.608Z,99408.58
2023-01-06T09:08:57.005Z,99410.95
2023-01-06T09:11:23.795Z,99408.29
2023-01-06T09:13:53.482Z,99423.55
2023-01-06T09:16:20.403Z,99424.83
2023-01-06T09:18:50.423Z,99427.04
2023-01-06T09:21:18.144Z,99432.58
2023-01-06T09:23:44.917Z,99436.88
2023-01-06T09:26:11.615Z,99439.75
2023-01-06T09:28:38.334Z,99451.99
2023-01-06T09:31:05.210Z,99455.89
2023-01-06T09:33:31.870Z,99459.64
2023-01-06T09:35:58.565Z,99464.08
2023-01-06T09:38:26.323Z,99467.08
2023-01-06T09:41:08.257Z,99464.23
2023-01-06T09:43:55.556Z,99467.66
2023-01-06T09:46:28.860Z,99460.52
2023-01-06T09:49:01.743Z,99466.05
2023-01-06T09:51:28.427Z,99468.72
2023-01-06T09:54:34.965Z,99473.27
2023-01-06T09:57:06.362Z,99480.49
2023-01-06T09:59:36.174Z,99487.93
2023-01-06T10:02:03.011Z,99486.13
2023-01-06T10:04:29.958Z,99495.35
2023-01-06T10:07:15.439Z,99502.77
2023-01-06T10:10:14.934Z,99506.48
2023-01-06T10:12:47.511Z,99504.48
2023-01-06T10:15:36.780Z,99503.81
2023-01-06T10:18:26.717Z,99518.37
2023-01-06T10:21:07.575Z,99521.94
2023-01-06T10:23:37.286Z,99530.56
2023-01-06T10:26:22.563Z,99535.52
2023-01-06T10:28:53.275Z,99541.09
2023-01-06T10:31:22.288Z,99550.81
2023-01-06T10:33:51.689Z,99555.75
2023-01-06T10:36:21.122Z,99564.31
2023-01-06T10:38:49.844Z,99566.98
2023-01-06T10:41:43.416Z,99570.45
2023-01-06T10:44:11.055Z,99567.93
2023-01-06T10:46:39.225Z,99571.65
2023-01-06T10:49:12.669Z,99577.20
2023-01-06T10:51:40.679Z,99590.04
2023-01-06T10:54:10.264Z,99593.90
2023-01-06T10:56:37.030Z,99597.98
2023-01-06T10:59:10.466Z,99604.46
2023-01-06T11:01:51.499Z,99604.67
2023-01-06T11:04:19.875Z,99607.88
2023-01-06T11:06:56.750Z,99608.38
2023-01-06T11:09:25.419Z,99604.84
2023-01-06T11:11:52.512Z,99605.88
2023-01-06T11:14:20.725Z,99601.38
2023-01-06T11:17:14.553Z,99606.52
2023-01-06T11:19:42.797Z,99610.06
2023-01-06T11:22:37.115Z,99615.74
2023-01-06T11:25:21.901Z,99621.23
2023-01-06T11:27:52.548Z,99622.60
2023-01-06T11:30:26.610Z,99628.36
2023-01-06T11:32:53.564Z,99621.48
2023-01-06T11:35:21.466Z,99619.23
2023-01-06T11:37:48.178Z,99639.33
2023-01-06T11:40:21.327Z,99648.95
2023-01-06T11:42:49.295Z,99655.89
2023-01-06T11:45:30.363Z,99658.71
2023-01-06T11:47:57.075Z,99654.55
2023-01-06T11:50:23.740Z,99659.58
2023-01-06T11:53:00.779Z,99658.73
2023-01-06T11:55:27.526Z,99659.17
2023-01-06T11:58:04.343Z,99655.14
2023-01-06T12:00:46.817Z,99663.27
2023-01-06T12:03:21.441Z,99659.91
2023-01-06T12:06:07.040Z,99661.81
2023-01-06T12:08:40.655Z,99666.19
2023-01-06T12:11:24.269Z,99669.08
2023-01-06T12:14:08.848Z,99671.71
2023-01-06T12:16:49.368Z,99672.11
2023-01-06T12:19:36.889Z,99674.31
2023-01-06T12:22:03.675Z,99677.78
2023-01-06T12:24:32.206Z,99679.75
2023-01-06T12:27:01.322Z,99687.22
2023-01-06T12:29:27.994Z,99695.18
2023-01-06T12:32:04.965Z,99697.35
2023-01-06T12:34:36.596Z,99702.25
2023-01-06T12:37:12.504Z,99704.92
2023-01-06T12:39:50.748Z,99711.44
2023-01-06T12:42:26.484Z,99717.41
2023-01-06T12:45:12.968Z,99725.10
2023-01-06T12:47:46.916Z,99738.43
2023-01-06T12:50:33.189Z,99742.67
2023-01-06T12:53:20.620Z,99747.42
2023-01-06T12:55:57.761Z,99755.55
2023-01-06T12:58:36.747Z,99767.20
2023-01-06T13:01:16.920Z,99774.89
2023-01-06T13:04:11.705Z,99779.77
2023-01-06T13:06:44.331Z,99790.25
2023-01-06T13:09:54.570Z,99792.58
2023-01-06T13:12:30.207Z,99800.70
2023-01-06T13:15:03.842Z,99806.45
2023-01-06T13:17:36.558Z,99818.45
2023-01-06T13:20:06.032Z,99818.36
2023-01-06T13:22:41.661Z,99821.73
2023-01-06T13:25:51.973Z,99837.70
2023-01-06T13:28:39.905Z,99844.97
2023-01-06T13:31:26.150Z,99852.14
2023-01-06T13:34:14.559Z,99861.68
2023-01-06T13:36:49.861Z,99860.85
2023-01-06T13:39:23.700Z,99864.80
2023-01-06T13:41:55.077Z,99863.73
2023-01-06T13:44:24.788Z,99870.13
2023-01-06T13:46:52.632Z,99872.29
2023-01-06T13:49:19.527Z,99869.42
2023-01-06T13:51:46.267Z,99871.61
2023-01-06T13:54:40.795Z,99873.80
2023-01-06T13:57:22.314Z,99874.84
2023-01-06T13:59:52.848Z,99868.05
2023-01-06T14:02:34.787Z,99872.86
2023-01-06T14:05:05.707Z,99877.27
2023-01-06T14:07:36.684Z,99877.85
2023-01-06T14:10:05.634Z,99876.17
2023-01-06T14:12:33.381Z,99879.30
2023-01-06T14:15:01.863Z,99881.46
2023-01-06T14:17:41.765Z,99884.67
2023-01-06T14:20:30.000Z,99887.92
2023-01-06T14:23:00.816Z,99895.23
2023-01-06T14:25:27.558Z,99895.66
2023-01-06T14:27:54.230Z,99896.80
2023-01-06T14:30:30.696Z,99898.64
2023-01-06T14:32:59.461Z,99897.80
2023-01-06T14:35:43.833Z,99904.19
2023-01-06T14:38:19.737Z,99907.17
2023-01-06T14:40:51.946Z,99913.14
2023-01-06T14:43:35.106Z,99910.46
2023-01-06T14:46:41.607Z,99915.99
2023-01-06T14:49:14.965Z,99920.83
2023-01-06T14:52:39.205Z,99923.73
2023-01-06T14:55:10.908Z,99931.05
2023-01-06T14:57:41.041Z,99937.62
2023-01-06T15:00:24.589Z,99941.95
2023-01-06T15:02:53.467Z,99939.39
2023-01-06T15:05:24.530Z,99941.23
2023-01-06T15:07:58.930Z,99947.30
2023-01-06T15:10:27.025Z,99954.85
2023-01-06T15:12:57.005Z,99959.64
2023-01-06T15:15:33.340Z,99966.59
2023-01-06T15:18:01.296Z,99965.66
2023-01-06T15:20:31.336Z,99968.65
2023-01-06T15:22:59.885Z,99975.70
2023-01-06T15:25:28.057Z,99980.66
2023-01-06T15:27:55.811Z,99986.30
2023-01-06T15:30:24.275Z,99983.73
2023-01-06T15:32:51.511Z,99993.09
2023-01-06T15:35:24.143Z,99996.97
2023-01-06T15:37:58.083Z,99995.33
2023-01-06T15:40:24.783Z,99996.63
2023-01-06T15:42:51.449Z,100005.58
2023-01-06T15:45:29.297Z,100011.21
2023-01-06T15:47:56.471Z,100010.23
2023-01-06T15:50:25.570Z,100013.23
2023-01-06T15:52:55.273Z,100027.65
2023-01-06T15:55:35.765Z,100032.86
2023-01-06T15:58:10.350Z,100030.83
2023-01-06T16:00:50.569Z,100030.93
2023-01-06T16:03:18.482Z,100044.48
2023-01-06T16:05:48.735Z,100045.54
2023-01-06T16:08:24.297Z,100054.03
2023-01-06T16:11:47.637Z,100057.70
2023-01-06T16:14:28.699Z,100061.04
2023-01-06T16:17:18.738Z,100061.95
2023-01-06T16:19:46.710Z,100066.20
2023-01-06T16:22:38.272Z,100068.45
2023-01-06T16:25:18.623Z,100072.15
2023-01-06T16:27:49.747Z,100079.94
2023-01-06T16:30:23.845Z,100074.89
2023-01-06T16:32:52.633Z,100076.79
2023-01-06T16:35:23.867Z,100078.80
2023-01-06T16:37:50.650Z,100074.96
2023-01-06T16:40:17.691Z,100082.63
2023-01-06T16:42:44.574Z,100090.99
2023-01-06T16:45:28.332Z,100091.42
2023-01-06T16:47:55.265Z,100095.88
2023-01-06T16:50:31.095Z,100098.14
2023-01-06T16:53:21.201Z,100103.19
2023-01-06T16:55:52.559Z,100104.30
2023-01-06T16:58:20.867Z,100105.20
2023-01-06T17:00:52.254Z,100107.27
2023-01-06T17:03:21.037Z,100109.89
2023-01-06T17:05:47.767Z,100112.89
2023-01-06T17:08:15.559Z,100114.79
2023-01-06T17:10:42.819Z,100116.52
2023-01-06T17:13:31.819Z,100111.22
2023-01-06T17:16:10.806Z,100115.38
2023-01-06T17:18:59.373Z,100116.77
2023-01-06T17:21:29.240Z,100110.88
2023-01-06T17:24:16.753Z,100114.00
2023-01-06T17:26:52.785Z,100110.86
2023-01-06T17:29:20.334Z,100111.64
2023-01-06T17:31:48.989Z,100110.29
2023-01-06T17:34:25.071Z,100116.52
2023-01-06T17:36:52.943Z,100114.64
2023-01-06T17:39:21.676Z,100114.82
2023-01-06T17:41:48.542Z,100116.41
2023-01-06T17:44:19.735Z,100119.71
2023-01-06T17:46:46.556Z,100125.55
2023-01-06T17:49:19.334Z,100126.16
2023-01-06T17:51:46.272Z,100124.17
2023-01-06T17:54:38.147Z,100127.72
2023-01-06T17:57:19.001Z,100133.01
2023-01-06T17:59:46.004Z,100137.90
2023-01-06T18:02:35.496Z,100139.06
2023-01-06T18:05:34.754Z,100151.75
2023-01-06T18:08:07.495Z,100162.70
2023-01-06T18:10:35.717Z,100162.23
2023-01-06T18:13:35.180Z,100168.23
2023-01-06T18:16:01.975Z,100173.81
2023-01-06T18:18:33.143Z,100180.89
2023-01-06T18:21:16.125Z,100184.00
2023-01-06T18:23:47.215Z,100186.54
2023-01-06T18:26:26.182Z,100183.16
2023-01-06T18:28:57.628Z,100191.79
2023-01-06T18:31:24.401Z,100193.56
2023-01-06T18:33:51.125Z,100194.49
2023-01-06T18:36:17.823Z,100192.23
2023-01-06T18:38:45.341Z,100186.71
2023-01-06T18:41:12.322Z,100190.79
2023-01-06T18:43:39.255Z,100195.86
2023-01-06T18:46:16.507Z,100203.12
2023-01-06T18:48:43.197Z,100200.82
2023-01-06T18:51:19.917Z,100205.52
2023-01-06T18:53:49.817Z,100207.36
2023-01-06T18:56:27.091Z,100204.70
2023-01-06T18:58:54.612Z,100206.70
2023-01-06T19:01:38.468Z,100213.98
2023-01-06T19:04:11.323Z,100209.77
2023-01-06T19:07:09.993Z,100213.79
2023-01-06T19:09:39.992Z,100219.96
2023-01-06T19:12:30.315Z,100216.06
2023-01-06T19:14:59.486Z,100219.95
2023-01-06T19:17:33.983Z,100221.01
2023-01-06T19:20:01.452Z,100218.71
2023-01-06T19:22:28.906Z,100215.17
2023-01-06T19:24:57.351Z,100216.73
2023-01-06T19:27:25.469Z,100215.59
2023-01-06T19:29:52.808Z,100228.02
2023-01-06T19:32:19.536Z,100231.97
2023-01-06T19:34:46.262Z,100232.30
2023-01-06T19:37:17.183Z,100234.23
2023-01-06T19:39:47.516Z,100232.08
2023-01-06T19:42:30.204Z,100235.43
2023-01-06T19:44:58.301Z,100232.59
2023-01-06T19:47:29.161Z,100244.34
2023-01-06T19:49:59.917Z,100245.91
2023-01-06T19:52:34.850Z,100248.23
2023-01-06T19:55:25.349Z,100259.86
2023-01-06T19:57:57.498Z,100262.31
2023-01-06T20:00:43.145Z,100257.70
2023-01-06T20:03:29.001Z,100257.38
2023-01-06T20:05:55.908Z,100252.40
2023-01-06T20:08:23.227Z,100252.70
2023-01-06T20:10:49.923Z,100255.73
2023-01-06T20:13:16.824Z,100254.20
2023-01-06T20:15:43.627Z,100257.36
2023-01-06T20:18:10.305Z,100265.44
2023-01-06T20:20:37.177Z,100263.02
2023-01-06T20:23:04.351Z,100266.67
2023-01-06T20:25:31.150Z,100272.33
2023-01-06T20:27:58.155Z,100278.71
2023-01-06T20:30:24.941Z,100281.04
2023-01-06T20:32:51.602Z,100285.48
2023-01-06T20:35:20.185Z,100286.23
2023-01-06T20:37:46.981Z,100292.08
2023-01-06T20:40:13.709Z,100289.81
2023-01-06T20:42:40.457Z,100291.51
2023-01-06T20:45:07.305Z,100292.77
2023-01-06T20:47:34.008Z,100298.23
2023-01-06T20:50:00.806Z,100297.02
2023-01-06T20:52:27.493Z,100297.39
2023-01-06T20:54:54.290Z,100298.18
2023-01-06T20:57:21.013Z,100302.02
2023-01-06T20:59:47.932Z,100300.19
2023-01-06T21:02:14.796Z,100304.52
2023-01-06T21:04:41.762Z,100306.66
2023-01-06T21:07:08.508Z,100314.41
2023-01-06T21:09:35.266Z,100313.10
2023-01-06T21:12:01.942Z,100319.70
2023-01-06T21:14:29.558Z,100323.43
2023-01-06T21:16:56.317Z,100318.42
2023-01-06T21:19:22.951Z,100319.39
2023-01-06T21:21:49.914Z,100317.74
2023-01-06T21:24:16.877Z,100319.91
2023-01-06T21:26:43.719Z,100320.28
2023-01-06T21:29:10.459Z,100316.13
2023-01-06T21:31:37.271Z,100304.52
2023-01-06T21:34:03.925Z,100312.84
2023-01-06T21:36:30.687Z,100316.11
2023-01-06T21:38:57.355Z,100312.37
2023-01-06T21:41:42.956Z,100322.20
2023-01-06T21:44:09.656Z,100312.55
2023-01-06T21:46:39.863Z,100325.58
2023-01-06T21:49:06.889Z,100330.23
2023-01-06T21:51:34.001Z,100330.44
2023-01-06T21:54:00.719Z,100332.77
2023-01-06T21:56:27.413Z,100334.70
2023-01-06T21:58:55.316Z,100337.60
2023-01-06T22:01:22.264Z,100338.80
2023-01-06T22:03:49.084Z,100338.15
2023-01-06T22:06:18.371Z,100336.27
2023-01-06T22:08:46.251Z,100332.70
2023-01-06T22:11:13.235Z,100334.60
2023-01-06T22:13:39.885Z,100336.06
2023-01-06T22:16:07.464Z,100337.95
2023-01-06T22:18:34.481Z,100331.33
2023-01-06T22:21:01.198Z,100331.46
2023-01-06T22:23:27.976Z,100328.27
2023-01-06T22:25:54.871Z,100330.32
2023-01-06T22:28:21.575Z,100326.44
2023-01-06T22:30:48.319Z,100327.41
2023-01-06T22:33:15.545Z,100325.86
2023-01-06T22:35:42.328Z,100329.08
2023-01-06T22:38:09.056Z,100330.33
2023-01-06T22:40:35.916Z,100332.06
2023-01-06T22:43:04.038Z,100335.41
2023-01-06T22:45:30.819Z,100338.42
2023-01-06T22:47:57.426Z,100337.42
2023-01-06T22:50:24.139Z,100335.92
2023-01-06T22:52:50.913Z,100336.60
2023-01-06T22:55:17.724Z,100337.63
2023-01-06T22:57:44.359Z,100345.86
2023-01-06T23:00:14.123Z,100352.27
2023-01-06T23:02:41.093Z,100356.08
2023-01-06T23:05:08.304Z,100361.77
2023-01-06T23:07:42.385Z,100365.10
2023-01-06T23:10:10.357Z,100364.72
2023-01-06T23:12:37.980Z,100362.41
2023-01-06T23:15:05.272Z,100362.58
2023-01-06T23:17:32.020Z,100364.16
2023-01-06T23:19:58.607Z,100367.06
2023-01-06T23:22:25.415Z,100373.56
2023-01-06T23:24:52.338Z,100375.30
2023-01-06T23:27:19.038Z,100377.91
2023-01-06T23:29:46.284Z,100378.60
2023-01-06T23:32:13.065Z,100375.59
2023-01-06T23:34:39.707Z,100377.98
2023-01-06T23:37:06.398Z,100378.51
2023-01-06T23:39:33.019Z,100380.89
2023-01-06T23:41:59.738Z,100383.84
2023-01-06T23:44:26.578Z,100383.41
2023-01-06T23:46:53.384Z,100387.62
2023-01-06T23:49:20.059Z,100394.55
2023-01-06T23:51:46.772Z,100393.88
2023-01-06T23:54:13.413Z,100394.14
2023-01-06T23:56:40.245Z,100395.71
2023-01-06T23:59:10.034Z,100399.67
